sensor_id;sensor_type;location;lat;lon;timestamp;pressure;altitude;pressure_sealevel;temperature;humidity
14089;BME280;7120;52.890;6.040;2023-08-20T00:01:26;102015.69;;;16.01;100.00
14089;BME280;7120;52.890;6.040;2023-08-20T00:03:52;102018.97;;;15.89;100.00
14089;BME280;7120;52.890;6.040;2023-08-20T00:06:19;102020.50;;;15.96;100.00
14089;BME280;7120;52.890;6.040;2023-08-20T00:08:45;102025.88;;;16.14;100.00
14089;BME280;7120;52.890;6.040;2023-08-20T00:11:11;102024.81;;;16.24;100.00
14089;BME280;7120;52.890;6.040;2023-08-20T00:13:37;102040.34;;;16.20;100.00
14089;BME280;7120;52.890;6.040;2023-08-20T00:16:02;102041.31;;;16.15;100.00
14089;BME280;7120;52.890;6.040;2023-08-20T00:18:28;102031.41;;;16.14;100.00
14089;BME280;7120;52.890;6.040;2023-08-20T00:20:54;102036.81;;;16.06;100.00
14089;BME280;7120;52.890;6.040;2023-08-20T00:23:20;102033.38;;;16.00;100.00
14089;BME280;7120;52.890;6.040;2023-08-20T00:25:46;102037.13;;;16.04;100.00
14089;BME280;7120;52.890;6.040;2023-08-20T00:28:12;102034.97;;;16.15;100.00
14089;BME280;7120;52.890;6.040;2023-08-20T00:30:37;102033.59;;;16.26;100.00
14089;BME280;7120;52.890;6.040;2023-08-20T00:33:03;102026.66;;;16.29;100.00
14089;BME280;7120;52.890;6.040;2023-08-20T00:35:28;102037.00;;;16.23;100.00
14089;BME280;7120;52.890;6.040;2023-08-20T00:37:54;102043.94;;;16.20;100.00
14089;BME280;7120;52.890;6.040;2023-08-20T00:40:19;102035.69;;;16.07;100.00
14089;BME280;7120;52.890;6.040;2023-08-20T00:42:44;102052.03;;;16.17;100.00
14089;BME280;7120;52.890;6.040;2023-08-20T00:45:10;102033.53;;;16.17;100.00
14089;BME280;7120;52.890;6.040;2023-08-20T00:47:37;102043.53;;;16.13;100.00
14089;BME280;7120;52.890;6.040;2023-08-20T00:50:03;102056.84;;;16.11;100.00
14089;BME280;7120;52.890;6.040;2023-08-20T00:52:32;102052.88;;;16.04;100.00
14089;BME280;7120;52.890;6.040;2023-08-20T00:54:58;102065.78;;;15.81;100.00
14089;BME280;7120;52.890;6.040;2023-08-20T00:57:26;102052.41;;;15.74;100.00
14089;BME280;7120;52.890;6.040;2023-08-20T00:59:54;102052.31;;;15.79;100.00
14089;BME280;7120;52.890;6.040;2023-08-20T01:02:20;102048.59;;;15.70;100.00
14089;BME280;7120;52.890;6.040;2023-08-20T01:04:47;102059.59;;;15.56;100.00
14089;BME280;7120;52.890;6.040;2023-08-20T01:12:36;102050.09;;;15.49;100.00
14089;BME280;7120;52.890;6.040;2023-08-20T01:15:02;102061.09;;;15.68;100.00
14089;BME280;7120;52.890;6.040;2023-08-20T01:17:27;102057.91;;;15.74;100.00
14089;BME280;7120;52.890;6.040;2023-08-20T01:19:53;102062.63;;;15.74;100.00
14089;BME280;7120;52.890;6.040;2023-08-20T01:22:46;102070.97;;;15.82;100.00
14089;BME280;7120;52.890;6.040;2023-08-20T01:28:29;102067.72;;;15.67;100.00
14089;BME280;7120;52.890;6.040;2023-08-20T01:31:00;102077.31;;;15.69;100.00
14089;BME280;7120;52.890;6.040;2023-08-20T01:33:27;102071.50;;;15.71;100.00
14089;BME280;7120;52.890;6.040;2023-08-20T01:35:54;102077.94;;;15.80;100.00
14089;BME280;7120;52.890;6.040;2023-08-20T01:38:19;102087.53;;;15.96;100.00
14089;BME280;7120;52.890;6.040;2023-08-20T01:40:45;102071.06;;;15.91;100.00
14089;BME280;7120;52.890;6.040;2023-08-20T01:43:10;102090.47;;;16.00;100.00
14089;BME280;7120;52.890;6.040;2023-08-20T01:45:36;102090.28;;;15.96;100.00
14089;BME280;7120;52.890;6.040;2023-08-20T01:48:01;102085.09;;;15.95;100.00
14089;BME280;7120;52.890;6.040;2023-08-20T01:50:28;102102.66;;;15.85;100.00
14089;BME280;7120;52.890;6.040;2023-08-20T01:52:54;102107.75;;;15.78;100.00
14089;BME280;7120;52.890;6.040;2023-08-20T01:55:19;102120.41;;;15.92;100.00
14089;BME280;7120;52.890;6.040;2023-08-20T01:57:44;102117.88;;;15.96;100.00
14089;BME280;7120;52.890;6.040;2023-08-20T02:00:10;102120.13;;;15.94;100.00
14089;BME280;7120;52.890;6.040;2023-08-20T02:02:36;102115.72;;;16.07;100.00
14089;BME280;7120;52.890;6.040;2023-08-20T02:05:01;102119.31;;;16.07;100.00
14089;BME280;7120;52.890;6.040;2023-08-20T02:07:28;102112.44;;;16.18;100.00
14089;BME280;7120;52.890;6.040;2023-08-20T02:09:53;102107.66;;;16.10;100.00
14089;BME280;7120;52.890;6.040;2023-08-20T02:12:18;102120.53;;;16.15;100.00
14089;BME280;7120;52.890;6.040;2023-08-20T02:14:44;102108.69;;;16.01;100.00
14089;BME280;7120;52.890;6.040;2023-08-20T02:17:10;102109.69;;;16.05;100.00
14089;BME280;7120;52.890;6.040;2023-08-20T02:19:37;102102.84;;;16.16;100.00
14089;BME280;7120;52.890;6.040;2023-08-20T02:22:03;102108.69;;;16.01;100.00
14089;BME280;7120;52.890;6.040;2023-08-20T02:24:28;102094.19;;;15.95;100.00
14089;BME280;7120;52.890;6.040;2023-08-20T02:26:53;102093.44;;;16.03;100.00
14089;BME280;7120;52.890;6.040;2023-08-20T02:29:19;102084.03;;;16.04;100.00
14089;BME280;7120;52.890;6.040;2023-08-20T02:31:44;102079.88;;;15.93;100.00
14089;BME280;7120;52.890;6.040;2023-08-20T02:34:10;102084.88;;;15.91;100.00
14089;BME280;7120;52.890;6.040;2023-08-20T02:36:35;102090.28;;;15.82;100.00
14089;BME280;7120;52.890;6.040;2023-08-20T02:39:01;102078.75;;;15.94;100.00
14089;BME280;7120;52.890;6.040;2023-08-20T02:41:26;102068.94;;;15.88;100.00
14089;BME280;7120;52.890;6.040;2023-08-20T02:43:51;102063.00;;;15.95;100.00
14089;BME280;7120;52.890;6.040;2023-08-20T02:46:17;102067.16;;;16.06;100.00
14089;BME280;7120;52.890;6.040;2023-08-20T02:48:42;102070.25;;;16.04;100.00
14089;BME280;7120;52.890;6.040;2023-08-20T02:51:07;102053.59;;;15.96;100.00
14089;BME280;7120;52.890;6.040;2023-08-20T02:53:33;102058.63;;;15.93;100.00
14089;BME280;7120;52.890;6.040;2023-08-20T02:55:58;102057.50;;;15.95;100.00
14089;BME280;7120;52.890;6.040;2023-08-20T02:58:24;102063.19;;;15.98;100.00
14089;BME280;7120;52.890;6.040;2023-08-20T03:00:50;102058.41;;;15.90;100.00
14089;BME280;7120;52.890;6.040;2023-08-20T03:03:15;102061.56;;;15.97;100.00
14089;BME280;7120;52.890;6.040;2023-08-20T03:05:42;102057.19;;;15.82;100.00
14089;BME280;7120;52.890;6.040;2023-08-20T03:08:07;102060.13;;;16.00;100.00
14089;BME280;7120;52.890;6.040;2023-08-20T03:10:34;102060.25;;;15.95;100.00
14089;BME280;7120;52.890;6.040;2023-08-20T03:13:00;102068.22;;;15.82;100.00
14089;BME280;7120;52.890;6.040;2023-08-20T03:15:29;102055.72;;;15.57;100.00
14089;BME280;7120;52.890;6.040;2023-08-20T03:17:55;102054.75;;;15.67;100.00
14089;BME280;7120;52.890;6.040;2023-08-20T03:20:20;102059.00;;;15.46;100.00
14089;BME280;7120;52.890;6.040;2023-08-20T03:22:46;102054.63;;;15.45;100.00
14089;BME280;7120;52.890;6.040;2023-08-20T03:25:11;102064.91;;;15.39;100.00
14089;BME280;7120;52.890;6.040;2023-08-20T03:27:37;102068.09;;;15.46;100.00
14089;BME280;7120;52.890;6.040;2023-08-20T03:30:03;102071.66;;;15.47;100.00
14089;BME280;7120;52.890;6.040;2023-08-20T03:32:29;102075.56;;;15.59;100.00
14089;BME280;7120;52.890;6.040;2023-08-20T03:34:54;102076.97;;;15.57;100.00
14089;BME280;7120;52.890;6.040;2023-08-20T03:37:21;102071.44;;;15.57;100.00
14089;BME280;7120;52.890;6.040;2023-08-20T03:39:47;102042.91;;;15.67;100.00
14089;BME280;7120;52.890;6.040;2023-08-20T03:42:12;102061.72;;;15.64;100.00
14089;BME280;7120;52.890;6.040;2023-08-20T03:44:38;102072.31;;;15.71;100.00
14089;BME280;7120;52.890;6.040;2023-08-20T03:47:03;102077.09;;;15.52;100.00
14089;BME280;7120;52.890;6.040;2023-08-20T03:49:28;102083.72;;;15.37;100.00
14089;BME280;7120;52.890;6.040;2023-08-20T03:51:54;102087.06;;;15.34;100.00
14089;BME280;7120;52.890;6.040;2023-08-20T03:54:20;102078.59;;;15.44;100.00
14089;BME280;7120;52.890;6.040;2023-08-20T03:56:45;102094.63;;;15.42;100.00
14089;BME280;7120;52.890;6.040;2023-08-20T03:59:10;102098.31;;;15.37;100.00
14089;BME280;7120;52.890;6.040;2023-08-20T04:01:36;102099.50;;;15.31;100.00
14089;BME280;7120;52.890;6.040;2023-08-20T04:04:03;102099.13;;;15.38;100.00
14089;BME280;7120;52.890;6.040;2023-08-20T04:06:28;102100.13;;;15.42;100.00
14089;BME280;7120;52.890;6.040;2023-08-20T04:08:54;102101.78;;;15.57;100.00
14089;BME280;7120;52.890;6.040;2023-08-20T04:11:19;102093.31;;;15.53;100.00
14089;BME280;7120;52.890;6.040;2023-08-20T04:13:44;102105.94;;;15.73;100.00
14089;BME280;7120;52.890;6.040;2023-08-20T04:16:11;102106.66;;;15.79;100.00
14089;BME280;7120;52.890;6.040;2023-08-20T04:18:36;102117.97;;;15.91;100.00
14089;BME280;7120;52.890;6.040;2023-08-20T04:21:01;102113.59;;;15.76;100.00
14089;BME280;7120;52.890;6.040;2023-08-20T04:23:27;102123.41;;;15.82;100.00
14089;BME280;7120;52.890;6.040;2023-08-20T04:25:52;102123.91;;;15.84;100.00
14089;BME280;7120;52.890;6.040;2023-08-20T04:28:18;102121.84;;;15.76;100.00
14089;BME280;7120;52.890;6.040;2023-08-20T04:30:43;102125.66;;;15.80;100.00
14089;BME280;7120;52.890;6.040;2023-08-20T04:33:09;102128.91;;;15.82;100.00
14089;BME280;7120;52.890;6.040;2023-08-20T04:35:35;102132.81;;;15.81;100.00
14089;BME280;7120;52.890;6.040;2023-08-20T04:38:00;102136.16;;;15.92;100.00
14089;BME280;7120;52.890;6.040;2023-08-20T04:40:25;102148.22;;;15.82;100.00
14089;BME280;7120;52.890;6.040;2023-08-20T04:42:51;102150.69;;;15.98;100.00
14089;BME280;7120;52.890;6.040;2023-08-20T04:45:17;102146.28;;;15.97;100.00
14089;BME280;7120;52.890;6.040;2023-08-20T04:47:45;102150.09;;;16.01;100.00
14089;BME280;7120;52.890;6.040;2023-08-20T04:50:10;102152.72;;;16.06;100.00
14089;BME280;7120;52.890;6.040;2023-08-20T04:52:35;102154.34;;;16.07;100.00
14089;BME280;7120;52.890;6.040;2023-08-20T04:55:01;102164.97;;;16.13;100.00
14089;BME280;7120;52.890;6.040;2023-08-20T04:57:27;102147.50;;;16.04;100.00
14089;BME280;7120;52.890;6.040;2023-08-20T04:59:52;102144.66;;;16.09;100.00
14089;BME280;7120;52.890;6.040;2023-08-20T05:02:18;102144.75;;;16.18;100.00
14089;BME280;7120;52.890;6.040;2023-08-20T05:04:43;102146.59;;;16.23;100.00
14089;BME280;7120;52.890;6.040;2023-08-20T05:07:08;102133.78;;;16.27;100.00
14089;BME280;7120;52.890;6.040;2023-08-20T05:09:34;102138.91;;;16.19;100.00
14089;BME280;7120;52.890;6.040;2023-08-20T05:12:00;102148.00;;;16.20;100.00
14089;BME280;7120;52.890;6.040;2023-08-20T05:14:25;102148.13;;;16.29;100.00
14089;BME280;7120;52.890;6.040;2023-08-20T05:16:50;102156.28;;;16.34;100.00
14089;BME280;7120;52.890;6.040;2023-08-20T05:19:16;102150.56;;;16.44;100.00
14089;BME280;7120;52.890;6.040;2023-08-20T05:21:41;102154.63;;;16.46;100.00
14089;BME280;7120;52.890;6.040;2023-08-20T05:24:06;102149.59;;;16.48;100.00
14089;BME280;7120;52.890;6.040;2023-08-20T05:26:32;102144.88;;;16.49;100.00
14089;BME280;7120;52.890;6.040;2023-08-20T05:28:57;102149.28;;;16.64;100.00
14089;BME280;7120;52.890;6.040;2023-08-20T05:31:22;102147.50;;;16.68;100.00
14089;BME280;7120;52.890;6.040;2023-08-20T05:33:48;102148.56;;;16.72;100.00
14089;BME280;7120;52.890;6.040;2023-08-20T05:36:14;102150.19;;;16.73;100.00
14089;BME280;7120;52.890;6.040;2023-08-20T05:38:40;102158.88;;;16.80;100.00
14089;BME280;7120;52.890;6.040;2023-08-20T05:41:07;102161.91;;;16.92;100.00
14089;BME280;7120;52.890;6.040;2023-08-20T05:43:33;102151.72;;;17.01;100.00
14089;BME280;7120;52.890;6.040;2023-08-20T05:45:58;102153.75;;;17.10;100.00
14089;BME280;7120;52.890;6.040;2023-08-20T05:48:23;102159.31;;;17.18;100.00
14089;BME280;7120;52.890;6.040;2023-08-20T05:50:49;102151.84;;;17.19;100.00
14089;BME280;7120;52.890;6.040;2023-08-20T05:53:14;102163.44;;;17.21;100.00
14089;BME280;7120;52.890;6.040;2023-08-20T05:55:39;102148.78;;;17.20;100.00
14089;BME280;7120;52.890;6.040;2023-08-20T05:58:05;102152.47;;;17.38;100.00
14089;BME280;7120;52.890;6.040;2023-08-20T06:00:30;102152.22;;;17.48;100.00
14089;BME280;7120;52.890;6.040;2023-08-20T06:02:56;102156.28;;;17.51;100.00
14089;BME280;7120;52.890;6.040;2023-08-20T06:05:21;102155.28;;;17.47;100.00
14089;BME280;7120;52.890;6.040;2023-08-20T06:07:47;102140.84;;;17.50;100.00
14089;BME280;7120;52.890;6.040;2023-08-20T06:10:12;102154.75;;;17.67;100.00
14089;BME280;7120;52.890;6.040;2023-08-20T06:12:37;102153.25;;;17.61;100.00
14089;BME280;7120;52.890;6.040;2023-08-20T06:15:04;102151.59;;;17.82;100.00
14089;BME280;7120;52.890;6.040;2023-08-20T06:17:29;102153.88;;;17.89;100.00
14089;BME280;7120;52.890;6.040;2023-08-20T06:19:55;102160.88;;;17.87;100.00
14089;BME280;7120;52.890;6.040;2023-08-20T06:22:20;102159.16;;;17.99;100.00
14089;BME280;7120;52.890;6.040;2023-08-20T06:24:46;102158.38;;;18.07;100.00
14089;BME280;7120;52.890;6.040;2023-08-20T06:27:11;102160.69;;;18.23;100.00
14089;BME280;7120;52.890;6.040;2023-08-20T06:29:36;102159.59;;;18.32;100.00
14089;BME280;7120;52.890;6.040;2023-08-20T06:32:02;102162.88;;;18.52;100.00
14089;BME280;7120;52.890;6.040;2023-08-20T06:34:28;102139.88;;;18.51;100.00
14089;BME280;7120;52.890;6.040;2023-08-20T06:36:54;102162.56;;;18.62;100.00
14089;BME280;7120;52.890;6.040;2023-08-20T06:39:19;102153.13;;;18.80;100.00
14089;BME280;7120;52.890;6.040;2023-08-20T06:41:45;102166.69;;;18.90;100.00
14089;BME280;7120;52.890;6.040;2023-08-20T06:44:11;102163.25;;;18.93;100.00
14089;BME280;7120;52.890;6.040;2023-08-20T06:46:36;102168.63;;;19.07;100.00
14089;BME280;7120;52.890;6.040;2023-08-20T06:49:02;102161.75;;;19.22;100.00
14089;BME280;7120;52.890;6.040;2023-08-20T06:51:28;102173.66;;;19.23;100.00
14089;BME280;7120;52.890;6.040;2023-08-20T06:53:53;102174.66;;;19.27;100.00
14089;BME280;7120;52.890;6.040;2023-08-20T06:56:20;102171.84;;;19.44;100.00
14089;BME280;7120;52.890;6.040;2023-08-20T06:58:45;102173.13;;;19.55;100.00
14089;BME280;7120;52.890;6.040;2023-08-20T07:01:11;102170.69;;;19.62;100.00
14089;BME280;7120;52.890;6.040;2023-08-20T07:03:39;102161.03;;;19.68;100.00
14089;BME280;7120;52.890;6.040;2023-08-20T07:06:05;102169.16;;;19.82;100.00
14089;BME280;7120;52.890;6.040;2023-08-20T07:08:30;102174.22;;;19.80;100.00
14089;BME280;7120;52.890;6.040;2023-08-20T07:10:56;102165.88;;;19.89;100.00
14089;BME280;7120;52.890;6.040;2023-08-20T07:13:22;102172.19;;;19.98;100.00
14089;BME280;7120;52.890;6.040;2023-08-20T07:15:47;102172.19;;;20.27;100.00
14089;BME280;7120;52.890;6.040;2023-08-20T07:18:13;102164.16;;;20.35;100.00
14089;BME280;7120;52.890;6.040;2023-08-20T07:20:43;102168.31;;;20.49;100.00
14089;BME280;7120;52.890;6.040;2023-08-20T07:23:09;102170.97;;;20.46;100.00
14089;BME280;7120;52.890;6.040;2023-08-20T07:25:39;102166.97;;;20.55;100.00
14089;BME280;7120;52.890;6.040;2023-08-20T07:28:06;102169.38;;;20.66;100.00
14089;BME280;7120;52.890;6.040;2023-08-20T07:30:32;102168.97;;;20.76;100.00
14089;BME280;7120;52.890;6.040;2023-08-20T07:32:57;102170.59;;;20.77;100.00
14089;BME280;7120;52.890;6.040;2023-08-20T07:35:23;102159.47;;;20.77;100.00
14089;BME280;7120;52.890;6.040;2023-08-20T07:37:49;102165.97;;;21.02;100.00
14089;BME280;7120;52.890;6.040;2023-08-20T07:40:14;102166.50;;;21.16;100.00
14089;BME280;7120;52.890;6.040;2023-08-20T07:42:40;102164.88;;;21.15;100.00
14089;BME280;7120;52.890;6.040;2023-08-20T07:45:06;102174.09;;;21.28;100.00
14089;BME280;7120;52.890;6.040;2023-08-20T07:47:33;102176.81;;;21.36;100.00
14089;BME280;7120;52.890;6.040;2023-08-20T07:49:58;102172.75;;;21.46;100.00
14089;BME280;7120;52.890;6.040;2023-08-20T07:52:24;102183.63;;;21.72;100.00
14089;BME280;7120;52.890;6.040;2023-08-20T07:54:49;102161.34;;;21.84;100.00
14089;BME280;7120;52.890;6.040;2023-08-20T07:57:15;102176.91;;;21.98;100.00
14089;BME280;7120;52.890;6.040;2023-08-20T07:59:40;102174.38;;;21.92;100.00
14089;BME280;7120;52.890;6.040;2023-08-20T08:02:05;102174.50;;;22.08;100.00
14089;BME280;7120;52.890;6.040;2023-08-20T08:04:31;102184.16;;;22.35;100.00
14089;BME280;7120;52.890;6.040;2023-08-20T08:06:56;102179.13;;;22.53;100.00
14089;BME280;7120;52.890;6.040;2023-08-20T08:09:30;102182.09;;;22.85;100.00
14089;BME280;7120;52.890;6.040;2023-08-20T08:11:55;102193.34;;;23.28;100.00
14089;BME280;7120;52.890;6.040;2023-08-20T08:14:21;102194.66;;;23.19;100.00
14089;BME280;7120;52.890;6.040;2023-08-20T08:16:47;102194.13;;;23.01;100.00
14089;BME280;7120;52.890;6.040;2023-08-20T08:19:12;102202.75;;;22.96;100.00
14089;BME280;7120;52.890;6.040;2023-08-20T08:21:38;102201.66;;;23.41;100.00
14089;BME280;7120;52.890;6.040;2023-08-20T08:24:04;102199.78;;;23.17;100.00
14089;BME280;7120;52.890;6.040;2023-08-20T08:26:31;102201.72;;;23.28;100.00
14089;BME280;7120;52.890;6.040;2023-08-20T08:28:56;102192.34;;;23.80;100.00
14089;BME280;7120;52.890;6.040;2023-08-20T08:31:23;102207.16;;;24.13;100.00
14089;BME280;7120;52.890;6.040;2023-08-20T08:33:48;102216.78;;;24.15;100.00
14089;BME280;7120;52.890;6.040;2023-08-20T08:36:14;102210.84;;;24.01;100.00
14089;BME280;7120;52.890;6.040;2023-08-20T08:38:42;102217.94;;;24.30;100.00
14089;BME280;7120;52.890;6.040;2023-08-20T08:41:11;102226.19;;;24.38;100.00
14089;BME280;7120;52.890;6.040;2023-08-20T08:43:37;102222.47;;;24.50;100.00
14089;BME280;7120;52.890;6.040;2023-08-20T08:46:06;102223.06;;;24.94;100.00
14089;BME280;7120;52.890;6.040;2023-08-20T08:48:34;102222.28;;;25.52;100.00
14089;BME280;7120;52.890;6.040;2023-08-20T08:51:01;102226.81;;;25.80;100.00
14089;BME280;7120;52.890;6.040;2023-08-20T08:53:26;102219.00;;;25.50;100.00
14089;BME280;7120;52.890;6.040;2023-08-20T08:55:52;102222.91;;;24.87;100.00
14089;BME280;7120;52.890;6.040;2023-08-20T08:58:17;102215.06;;;25.32;100.00
14089;BME280;7120;52.890;6.040;2023-08-20T09:00:42;102221.59;;;26.01;100.00
14089;BME280;7120;52.890;6.040;2023-08-20T09:03:08;102231.06;;;26.16;100.00
14089;BME280;7120;52.890;6.040;2023-08-20T09:05:45;102232.59;;;26.63;100.00
14089;BME280;7120;52.890;6.040;2023-08-20T09:08:19;102232.44;;;26.78;100.00
14089;BME280;7120;52.890;6.040;2023-08-20T09:10:44;102241.88;;;27.23;100.00
14089;BME280;7120;52.890;6.040;2023-08-20T09:13:09;102243.19;;;27.33;93.26
14089;BME280;7120;52.890;6.040;2023-08-20T09:15:35;102238.56;;;27.85;89.19
14089;BME280;7120;52.890;6.040;2023-08-20T09:18:02;102240.66;;;27.95;84.53
14089;BME280;7120;52.890;6.040;2023-08-20T09:20:36;102250.16;;;27.80;84.57
14089;BME280;7120;52.890;6.040;2023-08-20T09:23:01;102234.94;;;27.84;85.23
14089;BME280;7120;52.890;6.040;2023-08-20T09:25:27;102242.19;;;27.85;82.13
14089;BME280;7120;52.890;6.040;2023-08-20T09:27:53;102258.44;;;28.51;88.62
14089;BME280;7120;52.890;6.040;2023-08-20T09:30:19;102252.22;;;27.49;89.70
14089;BME280;7120;52.890;6.040;2023-08-20T09:33:02;102255.91;;;27.94;81.09
14089;BME280;7120;52.890;6.040;2023-08-20T09:35:28;102248.75;;;27.63;93.52
14089;BME280;7120;52.890;6.040;2023-08-20T09:37:59;102257.53;;;26.94;86.08
14089;BME280;7120;52.890;6.040;2023-08-20T09:40:25;102246.09;;;27.06;85.19
14089;BME280;7120;52.890;6.040;2023-08-20T09:42:51;102256.41;;;27.29;81.61
14089;BME280;7120;52.890;6.040;2023-08-20T09:45:18;102254.66;;;27.54;92.52
14089;BME280;7120;52.890;6.040;2023-08-20T09:47:45;102265.16;;;28.35;89.11
14089;BME280;7120;52.890;6.040;2023-08-20T09:50:13;102257.94;;;29.00;80.26
14089;BME280;7120;52.890;6.040;2023-08-20T09:52:50;102253.22;;;29.18;74.54
14089;BME280;7120;52.890;6.040;2023-08-20T09:55:21;102265.72;;;28.11;84.33
14089;BME280;7120;52.890;6.040;2023-08-20T09:57:48;102264.97;;;28.65;81.21
14089;BME280;7120;52.890;6.040;2023-08-20T10:00:13;102260.94;;;28.18;74.64
14089;BME280;7120;52.890;6.040;2023-08-20T10:02:40;102272.25;;;28.26;76.18
14089;BME280;7120;52.890;6.040;2023-08-20T10:05:06;102268.88;;;29.16;79.02
14089;BME280;7120;52.890;6.040;2023-08-20T10:07:33;102265.56;;;28.34;82.17
14089;BME280;7120;52.890;6.040;2023-08-20T10:10:02;102260.72;;;28.34;75.85
14089;BME280;7120;52.890;6.040;2023-08-20T10:12:28;102260.28;;;27.54;72.90
14089;BME280;7120;52.890;6.040;2023-08-20T10:14:58;102265.28;;;28.05;79.15
14089;BME280;7120;52.890;6.040;2023-08-20T10:17:25;102265.19;;;27.27;77.54
14089;BME280;7120;52.890;6.040;2023-08-20T10:19:53;102267.13;;;27.90;77.45
14089;BME280;7120;52.890;6.040;2023-08-20T10:22:20;102259.53;;;27.95;80.99
14089;BME280;7120;52.890;6.040;2023-08-20T10:24:51;102257.13;;;27.59;74.88
14089;BME280;7120;52.890;6.040;2023-08-20T10:27:26;102255.94;;;27.27;82.87
14089;BME280;7120;52.890;6.040;2023-08-20T10:29:53;102259.94;;;27.59;75.18
14089;BME280;7120;52.890;6.040;2023-08-20T10:32:19;102258.41;;;27.28;79.70
14089;BME280;7120;52.890;6.040;2023-08-20T10:34:50;102267.09;;;27.53;80.99
14089;BME280;7120;52.890;6.040;2023-08-20T10:37:26;102257.91;;;27.56;79.75
14089;BME280;7120;52.890;6.040;2023-08-20T10:39:55;102257.06;;;27.89;73.58
14089;BME280;7120;52.890;6.040;2023-08-20T10:42:22;102254.22;;;27.49;80.30
14089;BME280;7120;52.890;6.040;2023-08-20T10:45:07;102262.09;;;27.06;76.36
14089;BME280;7120;52.890;6.040;2023-08-20T10:47:43;102249.56;;;27.63;77.18
14089;BME280;7120;52.890;6.040;2023-08-20T10:50:11;102253.34;;;27.11;76.79
14089;BME280;7120;52.890;6.040;2023-08-20T10:52:40;102254.16;;;27.79;74.58
14089;BME280;7120;52.890;6.040;2023-08-20T10:55:07;102259.19;;;28.00;76.17
14089;BME280;7120;52.890;6.040;2023-08-20T10:57:36;102261.63;;;29.11;71.88
14089;BME280;7120;52.890;6.040;2023-08-20T11:00:05;102270.94;;;28.60;80.77
14089;BME280;7120;52.890;6.040;2023-08-20T11:02:40;102258.44;;;28.06;75.70
14089;BME280;7120;52.890;6.040;2023-08-20T11:05:17;102260.66;;;27.86;78.53
14089;BME280;7120;52.890;6.040;2023-08-20T11:07:46;102260.47;;;28.06;81.81
14089;BME280;7120;52.890;6.040;2023-08-20T11:10:16;102252.63;;;27.85;75.07
14089;BME280;7120;52.890;6.040;2023-08-20T11:12:47;102260.56;;;27.08;73.17
14089;BME280;7120;52.890;6.040;2023-08-20T11:15:13;102259.63;;;27.31;79.09
14089;BME280;7120;52.890;6.040;2023-08-20T11:17:42;102270.06;;;27.30;76.56
14089;BME280;7120;52.890;6.040;2023-08-20T11:20:09;102259.78;;;26.85;75.72
14089;BME280;7120;52.890;6.040;2023-08-20T11:22:36;102265.53;;;27.22;77.98
14089;BME280;7120;52.890;6.040;2023-08-20T11:25:03;102257.88;;;27.19;77.09
14089;BME280;7120;52.890;6.040;2023-08-20T11:27:29;102264.38;;;27.98;83.74
14089;BME280;7120;52.890;6.040;2023-08-20T11:29:55;102269.44;;;28.22;76.07
14089;BME280;7120;52.890;6.040;2023-08-20T11:32:25;102260.59;;;27.79;68.61
14089;BME280;7120;52.890;6.040;2023-08-20T11:34:51;102264.25;;;28.28;74.60
14089;BME280;7120;52.890;6.040;2023-08-20T11:37:23;102270.28;;;28.81;71.09
14089;BME280;7120;52.890;6.040;2023-08-20T11:39:48;102274.25;;;28.73;67.55
14089;BME280;7120;52.890;6.040;2023-08-20T11:42:15;102265.34;;;29.33;67.87
14089;BME280;7120;52.890;6.040;2023-08-20T11:44:45;102270.69;;;29.60;67.00
14089;BME280;7120;52.890;6.040;2023-08-20T11:47:17;102269.81;;;29.41;64.21
14089;BME280;7120;52.890;6.040;2023-08-20T11:49:44;102268.00;;;29.01;61.11
14089;BME280;7120;52.890;6.040;2023-08-20T11:52:10;102272.88;;;29.04;69.91
14089;BME280;7120;52.890;6.040;2023-08-20T11:54:36;102252.63;;;28.88;66.58
14089;BME280;7120;52.890;6.040;2023-08-20T11:57:03;102267.81;;;29.49;75.02
14089;BME280;7120;52.890;6.040;2023-08-20T11:59:29;102268.28;;;29.62;67.56
14089;BME280;7120;52.890;6.040;2023-08-20T12:01:56;102259.72;;;29.33;61.71
14089;BME280;7120;52.890;6.040;2023-08-20T12:04:30;102265.00;;;29.49;62.40
14089;BME280;7120;52.890;6.040;2023-08-20T12:07:08;102259.41;;;29.63;57.28
14089;BME280;7120;52.890;6.040;2023-08-20T12:09:34;102253.25;;;29.25;56.83
14089;BME280;7120;52.890;6.040;2023-08-20T12:12:00;102259.91;;;30.22;59.42
14089;BME280;7120;52.890;6.040;2023-08-20T12:14:26;102255.81;;;29.73;61.14
14089;BME280;7120;52.890;6.040;2023-08-20T12:16:54;102258.66;;;29.98;68.34
14089;BME280;7120;52.890;6.040;2023-08-20T12:19:20;102254.66;;;29.96;65.06
14089;BME280;7120;52.890;6.040;2023-08-20T12:21:45;102249.81;;;30.43;60.23
14089;BME280;7120;52.890;6.040;2023-08-20T12:24:11;102260.69;;;30.76;56.63
14089;BME280;7120;52.890;6.040;2023-08-20T12:26:38;102261.91;;;29.97;65.24
14089;BME280;7120;52.890;6.040;2023-08-20T12:29:03;102257.03;;;30.58;68.23
14089;BME280;7120;52.890;6.040;2023-08-20T12:31:29;102254.19;;;30.79;55.39
14089;BME280;7120;52.890;6.040;2023-08-20T12:33:54;102257.88;;;30.37;58.08
14089;BME280;7120;52.890;6.040;2023-08-20T12:36:19;102250.59;;;30.07;58.85
14089;BME280;7120;52.890;6.040;2023-08-20T12:38:45;102260.59;;;29.59;60.49
14089;BME280;7120;52.890;6.040;2023-08-20T12:41:10;102253.81;;;29.88;60.57
14089;BME280;7120;52.890;6.040;2023-08-20T12:43:36;102256.97;;;29.58;61.69
14089;BME280;7120;52.890;6.040;2023-08-20T12:46:01;102258.50;;;29.34;63.61
14089;BME280;7120;52.890;6.040;2023-08-20T12:48:28;102260.19;;;28.22;68.24
14089;BME280;7120;52.890;6.040;2023-08-20T12:50:54;102265.00;;;28.21;69.24
14089;BME280;7120;52.890;6.040;2023-08-20T12:53:19;102258.38;;;29.06;70.45
14089;BME280;7120;52.890;6.040;2023-08-20T12:55:45;102267.38;;;28.19;63.99
14089;BME280;7120;52.890;6.040;2023-08-20T12:58:10;102260.03;;;29.14;65.76